createdAt,value
2023-03-07T00:01:39.658Z,18.93
2023-03-07T00:04:06.491Z,19.13
2023-03-07T00:06:33.263Z,20.63
2023-03-07T00:09:01.970Z,18.73
2023-03-07T00:11:29.185Z,19.37
2023-03-07T00:13:56.303Z,19.10
2023-03-07T00:16:24.755Z,19.17
2023-03-07T00:18:51.761Z,19.10
2023-03-07T00:21:21.806Z,17.93
2023-03-07T00:23:49.346Z,17.97
2023-03-07T00:26:18.907Z,18.97
2023-03-07T00:28:50.823Z,16.87
2023-03-07T00:31:18.851Z,18.87
2023-03-07T00:33:45.896Z,17.67
2023-03-07T00:36:18.670Z,18.70
2023-03-07T00:38:46.218Z,16.80
2023-03-07T00:41:15.449Z,17.07
2023-03-07T00:43:42.287Z,16.93
2023-03-07T00:46:09.560Z,17.10
2023-03-07T00:48:39.080Z,17.73
2023-03-07T00:51:07.519Z,16.63
2023-03-07T00:53:35.481Z,17.37
2023-03-07T00:56:03.437Z,18.07
2023-03-07T00:58:32.891Z,16.17
2023-03-07T01:01:00.105Z,17.87
2023-03-07T01:03:27.595Z,16.60
2023-03-07T01:05:55.008Z,15.90
2023-03-07T01:08:22.411Z,18.07
2023-03-07T01:10:49.423Z,16.53
2023-03-07T01:13:18.080Z,17.13
2023-03-07T01:15:44.865Z,17.03
2023-03-07T01:18:11.572Z,15.30
2023-03-07T01:20:39.630Z,16.60
2023-03-07T01:23:06.848Z,15.20
2023-03-07T01:25:40.578Z,16.53
2023-03-07T01:28:08.171Z,15.37
2023-03-07T01:30:34.931Z,16.43
2023-03-07T01:33:02.507Z,16.87
2023-03-07T01:35:30.254Z,16.60
2023-03-07T01:37:57.299Z,15.37
2023-03-07T01:40:24.692Z,16.40
2023-03-07T01:42:53.267Z,15.83
2023-03-07T01:45:35.433Z,15.07
2023-03-07T01:48:02.210Z,15.23
2023-03-07T01:50:28.958Z,13.87
2023-03-07T01:53:00.220Z,14.53
2023-03-07T01:55:35.111Z,14.90
2023-03-07T01:58:09.376Z,16.23
2023-03-07T02:00:38.550Z,14.87
2023-03-07T02:03:11.478Z,16.03
2023-03-07T02:05:58.692Z,14.37
2023-03-07T02:08:28.760Z,14.50
2023-03-07T02:10:55.516Z,14.97
2023-03-07T02:13:22.239Z,14.53
2023-03-07T02:15:52.431Z,14.13
2023-03-07T02:18:24.883Z,16.10
2023-03-07T02:21:30.194Z,14.73
2023-03-07T02:24:17.700Z,14.77
2023-03-07T02:26:49.408Z,15.17
2023-03-07T02:29:16.155Z,16.87
2023-03-07T02:31:43.009Z,15.37
2023-03-07T02:34:24.247Z,15.20
2023-03-07T02:36:56.924Z,15.37
2023-03-07T02:39:25.737Z,15.40
2023-03-07T02:41:55.330Z,16.63
2023-03-07T02:44:23.084Z,16.73
2023-03-07T02:46:49.819Z,15.60
2023-03-07T02:49:18.032Z,17.70
2023-03-07T02:51:44.890Z,16.93
2023-03-07T02:54:11.558Z,18.43
2023-03-07T02:56:38.813Z,17.43
2023-03-07T02:59:05.830Z,17.20
2023-03-07T03:01:33.221Z,17.97
2023-03-07T03:04:00.104Z,18.40
2023-03-07T03:06:26.901Z,18.37
2023-03-07T03:08:53.611Z,18.27
2023-03-07T03:11:20.397Z,17.73
2023-03-07T03:13:47.091Z,17.07
2023-03-07T03:16:14.216Z,17.53
2023-03-07T03:18:40.963Z,18.57
2023-03-07T03:21:09.860Z,17.93
2023-03-07T03:23:36.979Z,19.60
2023-03-07T03:26:07.790Z,18.40
2023-03-07T03:28:36.128Z,20.30
2023-03-07T03:31:10.559Z,20.03
2023-03-07T03:33:38.083Z,20.07
2023-03-07T03:36:10.507Z,19.67
2023-03-07T03:38:37.148Z,21.03
2023-03-07T03:41:05.943Z,19.27
2023-03-07T03:43:32.692Z,20.97
2023-03-07T03:45:59.807Z,21.90
2023-03-07T03:48:27.483Z,19.77
2023-03-07T03:51:05.710Z,19.10
2023-03-07T03:53:34.737Z,15.93
2023-03-07T03:56:10.125Z,16.40
2023-03-07T03:58:36.863Z,15.60
2023-03-07T04:01:05.970Z,16.27
2023-03-07T04:03:33.817Z,16.20
2023-03-07T04:06:05.858Z,16.70
2023-03-07T04:08:33.310Z,16.03
2023-03-07T04:11:00.353Z,15.57
2023-03-07T04:13:27.815Z,14.97
2023-03-07T04:15:54.975Z,15.23
2023-03-07T04:18:22.821Z,13.83
2023-03-07T04:20:51.380Z,9.10
2023-03-07T04:23:19.817Z,8.03
2023-03-07T04:25:51.996Z,7.53
2023-03-07T04:28:19.626Z,6.17
2023-03-07T04:30:47.152Z,6.17
2023-03-07T04:33:13.835Z,4.20
2023-03-07T04:35:40.742Z,4.67
2023-03-07T04:38:07.995Z,4.33
2023-03-07T04:40:35.822Z,4.43
2023-03-07T04:43:03.412Z,3.60
2023-03-07T04:45:32.452Z,3.40
2023-03-07T04:47:59.225Z,3.83
2023-03-07T04:50:26.162Z,3.07
2023-03-07T04:52:52.989Z,2.50
2023-03-07T04:55:19.668Z,2.10
2023-03-07T04:57:47.057Z,2.50
2023-03-07T05:00:14.366Z,2.87
2023-03-07T05:02:41.182Z,2.50
2023-03-07T05:05:08.292Z,2.67
2023-03-07T05:07:34.978Z,2.93
2023-03-07T05:10:02.068Z,2.77
2023-03-07T05:12:28.918Z,3.37
2023-03-07T05:14:55.679Z,3.53
2023-03-07T05:17:22.316Z,3.07
2023-03-07T05:19:49.065Z,3.37
2023-03-07T05:22:15.716Z,2.90
2023-03-07T05:24:42.384Z,4.30
2023-03-07T05:27:09.121Z,2.77
2023-03-07T05:29:36.057Z,3.10
2023-03-07T05:32:02.848Z,2.67
2023-03-07T05:34:29.596Z,2.70
2023-03-07T05:36:58.391Z,3.03
2023-03-07T05:39:27.464Z,2.60
2023-03-07T05:41:55.156Z,2.70
2023-03-07T05:44:21.960Z,2.67
2023-03-07T05:46:48.765Z,3.50
2023-03-07T05:49:15.539Z,2.60
2023-03-07T05:51:42.153Z,3.17
2023-03-07T05:54:08.823Z,2.70
2023-03-07T05:56:35.546Z,2.97
2023-03-07T05:59:02.271Z,3.03
2023-03-07T06:01:29.132Z,2.83
2023-03-07T06:03:55.861Z,2.73
2023-03-07T06:06:22.515Z,2.73
2023-03-07T06:08:49.172Z,2.43
2023-03-07T06:11:15.909Z,3.10
2023-03-07T06:13:42.624Z,3.10
2023-03-07T06:16:09.343Z,3.10
2023-03-07T06:18:36.122Z,3.83
2023-03-07T06:21:05.546Z,4.83
2023-03-07T06:23:34.796Z,4.73
2023-03-07T06:26:02.566Z,5.57
2023-03-07T06:28:32.419Z,5.90
2023-03-07T06:30:59.657Z,6.70
2023-03-07T06:33:26.709Z,6.63
2023-03-07T06:35:53.399Z,7.17
2023-03-07T06:38:20.103Z,6.87
2023-03-07T06:40:55.142Z,6.90
2023-03-07T06:43:21.894Z,6.70
2023-03-07T06:45:48.664Z,6.67
2023-03-07T06:48:15.321Z,5.40
2023-03-07T06:50:42.068Z,4.57
2023-03-07T06:53:08.839Z,4.23
2023-03-07T06:55:35.528Z,3.70
2023-03-07T06:58:02.333Z,3.27
2023-03-07T07:00:29.286Z,3.20
2023-03-07T07:02:56.141Z,3.30
2023-03-07T07:05:23.050Z,3.10
2023-03-07T07:07:49.849Z,3.10
2023-03-07T07:10:16.866Z,2.30
2023-03-07T07:12:43.590Z,2.80
2023-03-07T07:15:10.670Z,2.60
2023-03-07T07:17:39.187Z,3.00
2023-03-07T07:20:06.996Z,2.73
2023-03-07T07:22:33.909Z,2.93
2023-03-07T07:25:01.404Z,2.57
2023-03-07T07:27:29.611Z,2.40
2023-03-07T07:29:56.410Z,2.60
2023-03-07T07:32:23.372Z,2.50
2023-03-07T07:34:50.219Z,2.20
2023-03-07T07:37:16.939Z,1.80
2023-03-07T07:39:44.163Z,1.63
2023-03-07T07:42:12.616Z,1.67
2023-03-07T07:44:39.359Z,1.57
2023-03-07T07:47:06.087Z,1.63
2023-03-07T07:49:32.814Z,1.40
2023-03-07T07:51:59.622Z,1.60
2023-03-07T07:54:26.476Z,1.47
2023-03-07T07:56:53.193Z,1.57
2023-03-07T07:59:20.681Z,1.50
2023-03-07T08:01:47.459Z,1.40
2023-03-07T08:04:14.122Z,1.50
2023-03-07T08:06:40.898Z,1.33
2023-03-07T08:09:07.629Z,1.27
2023-03-07T08:11:34.688Z,1.40
2023-03-07T08:14:03.257Z,1.53
2023-03-07T08:16:30.228Z,1.60
2023-03-07T08:18:57.769Z,1.53
2023-03-07T08:21:25.530Z,1.43
2023-03-07T08:23:54.276Z,1.53
2023-03-07T08:26:21.310Z,1.70
2023-03-07T08:28:48.101Z,1.27
2023-03-07T08:31:17.739Z,1.20
2023-03-07T08:33:47.217Z,1.60
2023-03-07T08:36:14.463Z,1.60
2023-03-07T08:38:42.097Z,1.50
2023-03-07T08:41:10.050Z,1.40
2023-03-07T08:43:39.265Z,1.50
2023-03-07T08:46:06.579Z,2.00
2023-03-07T08:48:33.695Z,1.73
2023-03-07T08:51:12.173Z,1.60
2023-03-07T08:53:39.143Z,1.90
2023-03-07T08:56:10.268Z,2.00
2023-03-07T08:58:37.045Z,1.73
2023-03-07T09:01:04.896Z,1.90
2023-03-07T09:03:31.855Z,1.60
2023-03-07T09:05:58.633Z,1.67
2023-03-07T09:08:25.340Z,1.53
2023-03-07T09:10:52.058Z,1.30
2023-03-07T09:13:19.109Z,1.60
2023-03-07T09:15:46.224Z,1.50
2023-03-07T09:18:13.126Z,1.67
2023-03-07T09:20:40.183Z,1.80
2023-03-07T09:23:08.022Z,1.50
2023-03-07T09:25:34.786Z,1.47
2023-03-07T09:28:01.685Z,1.50
2023-03-07T09:30:28.990Z,1.90
2023-03-07T09:32:55.845Z,2.13
2023-03-07T09:35:22.938Z,1.37
2023-03-07T09:37:49.877Z,1.57
2023-03-07T09:40:20.878Z,1.40
2023-03-07T09:43:05.684Z,1.50
2023-03-07T09:45:46.413Z,1.40
2023-03-07T09:48:32.764Z,1.60
2023-03-07T09:51:14.564Z,1.87
2023-03-07T09:53:55.470Z,1.30
2023-03-07T09:56:27.048Z,2.07
2023-03-07T09:59:26.165Z,1.60
2023-03-07T10:02:09.229Z,1.70
2023-03-07T10:05:01.822Z,2.00
2023-03-07T10:07:29.584Z,1.87
2023-03-07T10:10:01.199Z,2.07
2023-03-07T10:13:01.716Z,2.53
2023-03-07T10:15:36.083Z,2.03
2023-03-07T10:18:08.794Z,1.77
2023-03-07T10:20:35.596Z,1.80
2023-03-07T10:23:05.600Z,1.90
2023-03-07T10:25:40.796Z,2.20
2023-03-07T10:28:21.917Z,1.87
2023-03-07T10:30:52.038Z,2.00
2023-03-07T10:33:19.751Z,2.07
2023-03-07T10:35:58.798Z,1.67
2023-03-07T10:38:40.560Z,1.60
2023-03-07T10:41:14.887Z,1.70
2023-03-07T10:43:43.637Z,1.63
2023-03-07T10:46:25.250Z,1.60
2023-03-07T10:48:56.094Z,1.50
2023-03-07T10:51:58.019Z,1.90
2023-03-07T10:54:30.479Z,2.00
2023-03-07T10:57:16.163Z,2.10
2023-03-07T10:59:48.557Z,2.30
2023-03-07T11:02:35.442Z,1.90
2023-03-07T11:05:18.097Z,2.03
2023-03-07T11:07:44.939Z,2.07
2023-03-07T11:10:30.441Z,1.90
2023-03-07T11:12:57.244Z,1.80
2023-03-07T11:15:24.838Z,2.20
2023-03-07T11:17:52.429Z,1.97
2023-03-07T11:20:29.142Z,1.97
2023-03-07T11:23:35.644Z,1.73
2023-03-07T11:26:17.647Z,2.10
2023-03-07T11:28:44.474Z,1.73
2023-03-07T11:31:35.635Z,1.53
2023-03-07T11:34:25.637Z,1.63
2023-03-07T11:37:01.606Z,1.70
2023-03-07T11:39:44.632Z,1.77
2023-03-07T11:42:24.328Z,1.83
2023-03-07T11:45:24.753Z,1.50
2023-03-07T11:48:14.394Z,2.40
2023-03-07T11:50:49.547Z,1.50
2023-03-07T11:53:16.200Z,1.83
2023-03-07T11:55:46.238Z,1.77
2023-03-07T11:58:43.831Z,1.70
2023-03-07T12:01:19.572Z,1.60
2023-03-07T12:04:04.568Z,1.87
2023-03-07T12:06:49.757Z,1.87
2023-03-07T12:09:19.426Z,2.17
2023-03-07T12:11:59.751Z,1.87
2023-03-07T12:14:26.339Z,1.90
2023-03-07T12:17:20.130Z,1.43
2023-03-07T12:19:46.765Z,1.37
2023-03-07T12:22:25.830Z,1.53
2023-03-07T12:25:08.731Z,1.80
2023-03-07T12:27:40.723Z,1.60
2023-03-07T12:30:16.640Z,2.20
2023-03-07T12:32:43.954Z,1.77
2023-03-07T12:35:36.960Z,1.87
2023-03-07T12:38:14.945Z,1.87
2023-03-07T12:40:47.327Z,1.80
2023-03-07T12:43:34.139Z,2.37
2023-03-07T12:46:11.873Z,1.83
2023-03-07T12:48:48.155Z,2.30
2023-03-07T12:51:39.261Z,2.20
2023-03-07T12:54:14.648Z,2.97
2023-03-07T12:56:49.992Z,4.47
2023-03-07T12:59:18.249Z,4.13
2023-03-07T13:01:59.734Z,4.20
2023-03-07T13:04:36.194Z,3.47
2023-03-07T13:07:16.946Z,3.00
2023-03-07T13:09:46.581Z,2.73
2023-03-07T13:12:13.282Z,3.40
2023-03-07T13:14:42.955Z,2.50
2023-03-07T13:17:11.165Z,1.10
2023-03-07T13:19:39.178Z,1.20
2023-03-07T13:22:14.998Z,1.70
2023-03-07T13:24:44.112Z,1.23
2023-03-07T13:27:18.429Z,1.03
2023-03-07T13:30:08.122Z,1.00
2023-03-07T13:32:54.423Z,1.20
2023-03-07T13:35:39.441Z,1.30
2023-03-07T13:38:15.408Z,1.20
2023-03-07T13:40:46.347Z,1.23
2023-03-07T13:43:35.445Z,1.80
2023-03-07T13:46:04.652Z,1.50
2023-03-07T13:48:31.364Z,1.03
2023-03-07T13:51:01.016Z,1.00
2023-03-07T13:53:28.423Z,0.90
2023-03-07T13:55:57.726Z,0.87
2023-03-07T13:58:44.524Z,1.27
2023-03-07T14:01:14.239Z,1.00
2023-03-07T14:03:47.813Z,1.50
2023-03-07T14:06:19.605Z,1.50
2023-03-07T14:08:49.071Z,1.83
2023-03-07T14:11:49.500Z,1.43
2023-03-07T14:14:38.231Z,1.30
2023-03-07T14:17:15.370Z,1.30
2023-03-07T14:20:23.846Z,1.30
2023-03-07T14:22:56.691Z,1.20
2023-03-07T14:25:30.865Z,1.53
2023-03-07T14:28:19.395Z,1.70
2023-03-07T14:31:01.230Z,1.67
2023-03-07T14:33:39.215Z,1.60
2023-03-07T14:36:21.744Z,1.57
2023-03-07T14:38:49.856Z,1.80
2023-03-07T14:41:38.343Z,1.80
2023-03-07T14:44:42.604Z,1.90
2023-03-07T14:47:30.113Z,1.97
2023-03-07T14:49:59.817Z,1.20
2023-03-07T14:52:31.231Z,1.33
2023-03-07T14:55:04.184Z,1.80
2023-03-07T14:57:38.245Z,2.00
2023-03-07T15:00:07.469Z,1.67
2023-03-07T15:02:34.145Z,1.63
2023-03-07T15:05:00.867Z,1.87
2023-03-07T15:07:27.889Z,1.43
2023-03-07T15:09:54.925Z,1.80
2023-03-07T15:12:28.165Z,1.50
2023-03-07T15:15:01.152Z,1.77
2023-03-07T15:17:34.043Z,1.90
2023-03-07T15:20:07.717Z,1.60
2023-03-07T15:22:40.369Z,1.70
2023-03-07T15:25:23.961Z,1.57
2023-03-07T15:28:04.777Z,1.50
2023-03-07T15:30:35.254Z,2.03
2023-03-07T15:33:18.753Z,1.87
2023-03-07T15:35:47.497Z,2.13
2023-03-07T15:38:24.006Z,1.67
2023-03-07T15:40:50.755Z,2.13
2023-03-07T15:43:25.771Z,1.80
2023-03-07T15:46:03.909Z,1.80
2023-03-07T15:48:38.669Z,1.57
2023-03-07T15:51:12.061Z,1.97
2023-03-07T15:53:42.085Z,1.90
2023-03-07T15:56:34.456Z,1.80
2023-03-07T15:59:05.312Z,1.90
2023-03-07T16:01:32.373Z,2.10
2023-03-07T16:04:01.263Z,2.23
2023-03-07T16:06:30.956Z,1.90
2023-03-07T16:08:57.701Z,1.70
2023-03-07T16:11:24.390Z,2.83
2023-03-07T16:13:51.330Z,2.20
2023-03-07T16:16:27.142Z,2.20
2023-03-07T16:18:57.438Z,1.93
2023-03-07T16:21:25.169Z,1.90
2023-03-07T16:23:52.342Z,1.90
2023-03-07T16:26:22.109Z,2.00
2023-03-07T16:28:50.540Z,2.33
2023-03-07T16:31:18.239Z,2.30
2023-03-07T16:33:46.079Z,1.47
2023-03-07T16:36:14.417Z,1.63
2023-03-07T16:38:41.191Z,1.80
2023-03-07T16:41:15.371Z,1.40
2023-03-07T16:43:42.136Z,1.10
2023-03-07T16:46:17.558Z,1.10
2023-03-07T16:48:45.281Z,0.90
2023-03-07T16:51:17.329Z,1.30
2023-03-07T16:53:45.714Z,1.30
2023-03-07T16:56:33.779Z,1.30
2023-03-07T16:59:00.764Z,1.40
2023-03-07T17:01:28.076Z,1.23
2023-03-07T17:03:58.003Z,1.20
2023-03-07T17:06:37.259Z,1.43
2023-03-07T17:09:06.848Z,1.23
2023-03-07T17:11:33.847Z,1.80
2023-03-07T17:14:04.278Z,1.37
2023-03-07T17:16:44.760Z,1.63
2023-03-07T17:19:27.286Z,1.40
2023-03-07T17:21:54.371Z,1.43
2023-03-07T17:24:21.259Z,1.30
2023-03-07T17:26:49.113Z,1.53
2023-03-07T17:29:33.277Z,1.63
2023-03-07T17:32:00.163Z,2.03
2023-03-07T17:34:31.997Z,1.30
2023-03-07T17:37:00.360Z,1.30
2023-03-07T17:39:30.297Z,1.47
2023-03-07T17:41:58.973Z,1.50
2023-03-07T17:44:25.897Z,1.50
2023-03-07T17:46:53.630Z,1.77
2023-03-07T17:49:21.523Z,1.57
2023-03-07T17:51:48.908Z,1.80
2023-03-07T17:54:16.881Z,2.20
2023-03-07T17:56:43.885Z,1.70
2023-03-07T17:59:11.177Z,1.93
2023-03-07T18:01:38.115Z,1.80
2023-03-07T18:04:06.374Z,2.03
2023-03-07T18:06:34.110Z,1.97
2023-03-07T18:09:02.008Z,2.00
2023-03-07T18:11:28.867Z,2.37
2023-03-07T18:13:55.660Z,2.00
2023-03-07T18:16:22.598Z,2.03
2023-03-07T18:18:58.789Z,2.17
2023-03-07T18:21:29.577Z,1.80
2023-03-07T18:23:57.604Z,2.23
2023-03-07T18:26:24.841Z,2.10
2023-03-07T18:28:53.333Z,2.13
2023-03-07T18:31:25.147Z,2.90
2023-03-07T18:33:53.007Z,2.53
2023-03-07T18:36:22.945Z,2.47
2023-03-07T18:38:50.136Z,2.03
2023-03-07T18:41:23.034Z,2.40
2023-03-07T18:43:50.299Z,2.53
2023-03-07T18:46:19.748Z,1.90
2023-03-07T18:48:47.408Z,1.63
2023-03-07T18:51:24.835Z,2.37
2023-03-07T18:53:58.274Z,2.27
2023-03-07T18:56:25.127Z,2.60
2023-03-07T18:58:56.715Z,2.53
2023-03-07T19:01:26.515Z,2.63
2023-03-07T19:03:55.103Z,2.50
2023-03-07T19:06:24.153Z,2.47
2023-03-07T19:08:50.902Z,2.70
2023-03-07T19:11:18.978Z,2.63
2023-03-07T19:13:45.757Z,2.67
2023-03-07T19:16:23.593Z,2.50
2023-03-07T19:18:51.672Z,2.80
2023-03-07T19:21:21.338Z,2.67
2023-03-07T19:23:49.194Z,2.80
2023-03-07T19:26:18.221Z,2.93
2023-03-07T19:28:46.478Z,2.97
2023-03-07T19:31:16.293Z,3.43
2023-03-07T19:33:44.292Z,3.67
2023-03-07T19:36:14.169Z,3.53
2023-03-07T19:38:41.910Z,4.23
2023-03-07T19:41:13.875Z,3.30
2023-03-07T19:43:40.644Z,3.23
2023-03-07T19:46:12.199Z,3.60
2023-03-07T19:48:40.846Z,3.53
2023-03-07T19:51:17.919Z,3.40
2023-03-07T19:53:45.889Z,3.73
2023-03-07T19:56:20.752Z,3.67
2023-03-07T19:58:47.897Z,4.03
2023-03-07T20:01:18.787Z,3.83
2023-03-07T20:03:46.426Z,3.93
2023-03-07T20:06:19.987Z,4.40
2023-03-07T20:08:54.667Z,4.83
2023-03-07T20:11:26.850Z,4.90
2023-03-07T20:13:54.934Z,5.23
2023-03-07T20:16:22.181Z,5.33
2023-03-07T20:18:53.607Z,6.30
2023-03-07T20:21:22.273Z,6.83
2023-03-07T20:23:49.118Z,7.13
2023-03-07T20:26:25.001Z,7.20
2023-03-07T20:28:53.070Z,6.63
2023-03-07T20:31:22.073Z,7.17
2023-03-07T20:33:49.654Z,7.20
2023-03-07T20:36:22.836Z,6.90
2023-03-07T20:38:51.636Z,7.20
2023-03-07T20:41:23.157Z,6.90
2023-03-07T20:43:51.225Z,6.17
2023-03-07T20:46:19.879Z,6.97
2023-03-07T20:48:47.268Z,6.83
2023-03-07T20:51:20.313Z,7.00
2023-03-07T20:53:52.815Z,6.27
2023-03-07T20:56:20.570Z,6.57
2023-03-07T20:58:47.821Z,6.00
2023-03-07T21:01:19.176Z,5.73
2023-03-07T21:03:46.148Z,5.83
2023-03-07T21:06:13.068Z,5.97
2023-03-07T21:08:39.904Z,5.00
2023-03-07T21:11:09.308Z,5.27
2023-03-07T21:13:38.169Z,6.20
2023-03-07T21:16:11.004Z,6.23
2023-03-07T21:18:37.972Z,5.80
2023-03-07T21:21:10.489Z,6.17
2023-03-07T21:23:37.647Z,5.93
2023-03-07T21:26:07.851Z,6.70
2023-03-07T21:28:35.970Z,6.63
2023-03-07T21:31:03.879Z,8.27
2023-03-07T21:33:31.709Z,9.70
2023-03-07T21:35:59.564Z,10.27
2023-03-07T21:38:26.495Z,11.13
2023-03-07T21:40:56.728Z,12.23
2023-03-07T21:43:24.087Z,13.63
2023-03-07T21:45:51.300Z,14.77
2023-03-07T21:48:19.392Z,14.90
2023-03-07T21:50:48.491Z,16.20
2023-03-07T21:53:15.788Z,16.23
2023-03-07T21:55:50.753Z,17.00
2023-03-07T21:58:17.496Z,16.63
2023-03-07T22:00:44.439Z,17.17
2023-03-07T22:03:11.180Z,17.00
2023-03-07T22:05:38.634Z,16.20
2023-03-07T22:08:05.728Z,16.67
2023-03-07T22:10:32.511Z,15.97
2023-03-07T22:12:59.436Z,16.37
2023-03-07T22:15:26.357Z,16.87
2023-03-07T22:17:53.299Z,16.70
2023-03-07T22:20:20.119Z,16.73
2023-03-07T22:22:46.851Z,16.70
2023-03-07T22:25:13.752Z,16.60
2023-03-07T22:27:43.345Z,16.10
2023-03-07T22:30:11.191Z,17.07
2023-03-07T22:32:38.157Z,16.63
2023-03-07T22:35:05.273Z,15.23
2023-03-07T22:37:31.947Z,17.57
2023-03-07T22:40:00.260Z,16.43
2023-03-07T22:42:27.007Z,17.27
2023-03-07T22:44:55.055Z,16.10
2023-03-07T22:47:21.901Z,15.67
2023-03-07T22:49:48.877Z,15.30
2023-03-07T22:52:15.518Z,15.00
2023-03-07T22:54:43.631Z,15.70
2023-03-07T22:57:10.275Z,13.73
2023-03-07T22:59:37.013Z,14.50
2023-03-07T23:02:03.732Z,14.57
2023-03-07T23:04:30.654Z,14.80
2023-03-07T23:06:57.484Z,14.23
2023-03-07T23:09:24.116Z,13.80
2023-03-07T23:11:50.804Z,13.10
2023-03-07T23:14:17.560Z,13.20
2023-03-07T23:16:44.276Z,13.67
2023-03-07T23:19:11.005Z,12.27
2023-03-07T23:21:37.805Z,13.07
2023-03-07T23:24:04.923Z,11.83
2023-03-07T23:26:35.081Z,12.63
2023-03-07T23:29:02.044Z,12.40
2023-03-07T23:31:35.404Z,13.97
2023-03-07T23:34:05.457Z,13.87
2023-03-07T23:36:32.714Z,12.53
2023-03-07T23:39:00.278Z,11.47
2023-03-07T23:41:27.993Z,12.43
2023-03-07T23:43:56.361Z,13.60
2023-03-07T23:46:23.739Z,13.13
2023-03-07T23:48:51.232Z,13.03
2023-03-07T23:51:18.527Z,12.47
2023-03-07T23:53:45.202Z,13.20
2023-03-07T23:56:12.904Z,11.93
2023-03-07T23:58:39.993Z,12.07
